sensor_id;sensor_type;location;lat;lon;timestamp;temperature;humidity
23147;DHT22;11742;53.532;-1.478;2022-12-07T00:01:48;8.10;90.50
23147;DHT22;11742;53.532;-1.478;2022-12-07T00:04:18;8.10;90.50
23147;DHT22;11742;53.532;-1.478;2022-12-07T00:06:46;8.10;90.50
23147;DHT22;11742;53.532;-1.478;2022-12-07T00:09:17;8.10;90.50
23147;DHT22;11742;53.532;-1.478;2022-12-07T00:11:44;8.10;90.50
23147;DHT22;11742;53.532;-1.478;2022-12-07T00:14:15;8.10;90.50
23147;DHT22;11742;53.532;-1.478;2022-12-07T00:16:50;8.10;90.50
23147;DHT22;11742;53.532;-1.478;2022-12-07T00:19:17;8.10;90.50
23147;DHT22;11742;53.532;-1.478;2022-12-07T00:21:46;8.00;90.50
23147;DHT22;11742;53.532;-1.478;2022-12-07T00:24:12;8.00;90.50
23147;DHT22;11742;53.532;-1.478;2022-12-07T00:26:40;8.00;90.50
23147;DHT22;11742;53.532;-1.478;2022-12-07T00:29:18;8.00;90.50
23147;DHT22;11742;53.532;-1.478;2022-12-07T00:31:45;8.00;90.50
23147;DHT22;11742;53.532;-1.478;2022-12-07T00:34:25;8.00;90.50
23147;DHT22;11742;53.532;-1.478;2022-12-07T00:36:55;8.00;90.50
23147;DHT22;11742;53.532;-1.478;2022-12-07T00:39:21;8.00;90.40
23147;DHT22;11742;53.532;-1.478;2022-12-07T00:41:47;7.90;90.40
23147;DHT22;11742;53.532;-1.478;2022-12-07T00:44:13;7.90;90.40
23147;DHT22;11742;53.532;-1.478;2022-12-07T00:46:42;7.90;90.40
23147;DHT22;11742;53.532;-1.478;2022-12-07T00:49:16;7.90;90.40
23147;DHT22;11742;53.532;-1.478;2022-12-07T00:51:42;7.90;90.40
23147;DHT22;11742;53.532;-1.478;2022-12-07T00:54:20;7.90;90.40
23147;DHT22;11742;53.532;-1.478;2022-12-07T00:56:46;7.90;90.40
23147;DHT22;11742;53.532;-1.478;2022-12-07T00:59:13;7.90;90.40
23147;DHT22;11742;53.532;-1.478;2022-12-07T01:01:42;7.90;90.40
23147;DHT22;11742;53.532;-1.478;2022-12-07T01:04:10;7.80;90.30
23147;DHT22;11742;53.532;-1.478;2022-12-07T01:06:36;7.80;90.30
23147;DHT22;11742;53.532;-1.478;2022-12-07T01:09:04;7.80;90.40
23147;DHT22;11742;53.532;-1.478;2022-12-07T01:11:31;7.80;90.30
23147;DHT22;11742;53.532;-1.478;2022-12-07T01:14:05;7.80;90.30
23147;DHT22;11742;53.532;-1.478;2022-12-07T01:16:34;7.80;90.30
23147;DHT22;11742;53.532;-1.478;2022-12-07T01:19:02;7.80;90.30
23147;DHT22;11742;53.532;-1.478;2022-12-07T01:21:34;7.70;90.30
23147;DHT22;11742;53.532;-1.478;2022-12-07T01:24:02;7.70;90.30
23147;DHT22;11742;53.532;-1.478;2022-12-07T01:26:33;7.70;90.30
23147;DHT22;11742;53.532;-1.478;2022-12-07T01:28:59;7.70;90.30
23147;DHT22;11742;53.532;-1.478;2022-12-07T01:31:27;7.70;90.30
23147;DHT22;11742;53.532;-1.478;2022-12-07T01:33:55;7.70;90.30
23147;DHT22;11742;53.532;-1.478;2022-12-07T01:36:22;7.70;90.30
23147;DHT22;11742;53.532;-1.478;2022-12-07T01:38:50;7.70;90.30
23147;DHT22;11742;53.532;-1.478;2022-12-07T01:41:24;7.70;90.70
23147;DHT22;11742;53.532;-1.478;2022-12-07T01:44:14;7.70;90.30
23147;DHT22;11742;53.532;-1.478;2022-12-07T01:47:00;7.60;90.30
23147;DHT22;11742;53.532;-1.478;2022-12-07T01:49:38;7.60;90.30
23147;DHT22;11742;53.532;-1.478;2022-12-07T01:54:44;7.60;90.30
23147;DHT22;11742;53.532;-1.478;2022-12-07T01:57:10;7.60;90.30
23147;DHT22;11742;53.532;-1.478;2022-12-07T01:59:37;7.60;90.30
23147;DHT22;11742;53.532;-1.478;2022-12-07T02:02:08;7.60;90.30
23147;DHT22;11742;53.532;-1.478;2022-12-07T02:04:36;7.60;90.30
23147;DHT22;11742;53.532;-1.478;2022-12-07T02:07:03;7.60;90.30
23147;DHT22;11742;53.532;-1.478;2022-12-07T02:09:30;7.50;90.30
23147;DHT22;11742;53.532;-1.478;2022-12-07T02:11:56;7.50;90.30
23147;DHT22;11742;53.532;-1.478;2022-12-07T02:14:22;7.50;90.30
23147;DHT22;11742;53.532;-1.478;2022-12-07T02:27:52;7.40;90.20
23147;DHT22;11742;53.532;-1.478;2022-12-07T02:30:23;7.40;90.20
23147;DHT22;11742;53.532;-1.478;2022-12-07T02:32:57;7.40;90.20
23147;DHT22;11742;53.532;-1.478;2022-12-07T02:35:30;7.40;90.20
23147;DHT22;11742;53.532;-1.478;2022-12-07T02:38:11;7.40;90.20
23147;DHT22;11742;53.532;-1.478;2022-12-07T02:40:46;7.40;90.20
23147;DHT22;11742;53.532;-1.478;2022-12-07T02:43:18;7.40;90.20
23147;DHT22;11742;53.532;-1.478;2022-12-07T02:45:51;7.40;90.20
23147;DHT22;11742;53.532;-1.478;2022-12-07T02:48:20;7.30;90.20
23147;DHT22;11742;53.532;-1.478;2022-12-07T02:50:53;7.40;90.20
23147;DHT22;11742;53.532;-1.478;2022-12-07T02:53:42;7.30;90.20
23147;DHT22;11742;53.532;-1.478;2022-12-07T02:59:12;7.30;90.20
23147;DHT22;11742;53.532;-1.478;2022-12-07T03:02:06;7.30;90.20
23147;DHT22;11742;53.532;-1.478;2022-12-07T03:13:38;7.20;90.20
23147;DHT22;11742;53.532;-1.478;2022-12-07T03:16:21;7.20;90.20
23147;DHT22;11742;53.532;-1.478;2022-12-07T03:19:36;7.20;90.20
23147;DHT22;11742;53.532;-1.478;2022-12-07T03:21:46;7.20;90.20
23147;DHT22;11742;53.532;-1.478;2022-12-07T03:24:15;7.20;90.20
23147;DHT22;11742;53.532;-1.478;2022-12-07T03:26:47;7.20;90.10
23147;DHT22;11742;53.532;-1.478;2022-12-07T03:29:26;7.20;90.10
23147;DHT22;11742;53.532;-1.478;2022-12-07T03:32:00;7.20;90.10
23147;DHT22;11742;53.532;-1.478;2022-12-07T03:34:39;7.20;90.10
23147;DHT22;11742;53.532;-1.478;2022-12-07T03:40:04;7.10;90.10
23147;DHT22;11742;53.532;-1.478;2022-12-07T03:42:33;7.10;90.10
23147;DHT22;11742;53.532;-1.478;2022-12-07T03:45:02;7.10;90.10
23147;DHT22;11742;53.532;-1.478;2022-12-07T03:47:39;7.10;90.10
23147;DHT22;11742;53.532;-1.478;2022-12-07T03:50:19;7.10;90.10
23147;DHT22;11742;53.532;-1.478;2022-12-07T03:52:57;7.00;90.00
23147;DHT22;11742;53.532;-1.478;2022-12-07T03:55:46;7.00;90.00
23147;DHT22;11742;53.532;-1.478;2022-12-07T03:58:21;7.00;90.10
23147;DHT22;11742;53.532;-1.478;2022-12-07T04:00:48;7.00;90.00
23147;DHT22;11742;53.532;-1.478;2022-12-07T04:03:15;7.00;90.10
23147;DHT22;11742;53.532;-1.478;2022-12-07T04:05:42;7.00;90.10
23147;DHT22;11742;53.532;-1.478;2022-12-07T04:08:08;7.00;90.00
23147;DHT22;11742;53.532;-1.478;2022-12-07T04:10:34;6.90;90.00
23147;DHT22;11742;53.532;-1.478;2022-12-07T04:13:00;6.90;90.00
23147;DHT22;11742;53.532;-1.478;2022-12-07T04:15:29;6.90;90.00
23147;DHT22;11742;53.532;-1.478;2022-12-07T04:17:57;6.90;90.00
23147;DHT22;11742;53.532;-1.478;2022-12-07T04:20:29;6.90;90.30
23147;DHT22;11742;53.532;-1.478;2022-12-07T04:22:59;6.90;90.00
23147;DHT22;11742;53.532;-1.478;2022-12-07T04:25:38;6.90;90.20
23147;DHT22;11742;53.532;-1.478;2022-12-07T04:28:03;6.90;90.00
23147;DHT22;11742;53.532;-1.478;2022-12-07T04:30:29;6.80;90.00
23147;DHT22;11742;53.532;-1.478;2022-12-07T04:32:55;6.80;90.00
23147;DHT22;11742;53.532;-1.478;2022-12-07T04:35:21;6.80;90.00
23147;DHT22;11742;53.532;-1.478;2022-12-07T04:37:49;6.80;90.00
23147;DHT22;11742;53.532;-1.478;2022-12-07T04:40:15;6.80;90.00
23147;DHT22;11742;53.532;-1.478;2022-12-07T04:42:41;6.80;90.00
23147;DHT22;11742;53.532;-1.478;2022-12-07T04:45:07;6.80;90.00
23147;DHT22;11742;53.532;-1.478;2022-12-07T04:47:33;6.80;89.90
23147;DHT22;11742;53.532;-1.478;2022-12-07T04:50:02;6.70;89.90
23147;DHT22;11742;53.532;-1.478;2022-12-07T04:52:27;6.70;89.90
23147;DHT22;11742;53.532;-1.478;2022-12-07T04:55:02;6.70;89.90
23147;DHT22;11742;53.532;-1.478;2022-12-07T04:57:34;6.70;89.90
23147;DHT22;11742;53.532;-1.478;2022-12-07T04:59:59;6.70;89.90
23147;DHT22;11742;53.532;-1.478;2022-12-07T05:02:31;6.70;89.90
23147;DHT22;11742;53.532;-1.478;2022-12-07T05:04:57;6.70;89.90
23147;DHT22;11742;53.532;-1.478;2022-12-07T05:07:25;6.70;89.90
23147;DHT22;11742;53.532;-1.478;2022-12-07T05:09:59;6.60;89.80
23147;DHT22;11742;53.532;-1.478;2022-12-07T05:12:28;6.60;89.80
23147;DHT22;11742;53.532;-1.478;2022-12-07T05:14:56;6.60;89.80
23147;DHT22;11742;53.532;-1.478;2022-12-07T05:17:22;6.60;89.80
23147;DHT22;11742;53.532;-1.478;2022-12-07T05:19:51;6.60;89.80
23147;DHT22;11742;53.532;-1.478;2022-12-07T05:22:16;6.60;89.80
23147;DHT22;11742;53.532;-1.478;2022-12-07T05:24:42;6.60;89.80
23147;DHT22;11742;53.532;-1.478;2022-12-07T05:27:08;6.50;89.70
23147;DHT22;11742;53.532;-1.478;2022-12-07T05:29:36;6.60;89.80
23147;DHT22;11742;53.532;-1.478;2022-12-07T05:32:02;6.50;89.70
23147;DHT22;11742;53.532;-1.478;2022-12-07T05:34:28;6.50;89.70
23147;DHT22;11742;53.532;-1.478;2022-12-07T05:36:55;6.50;89.70
23147;DHT22;11742;53.532;-1.478;2022-12-07T05:39:21;6.50;89.70
23147;DHT22;11742;53.532;-1.478;2022-12-07T05:41:48;6.50;89.70
23147;DHT22;11742;53.532;-1.478;2022-12-07T05:44:32;6.50;89.70
23147;DHT22;11742;53.532;-1.478;2022-12-07T05:46:58;6.50;89.70
23147;DHT22;11742;53.532;-1.478;2022-12-07T05:49:24;6.50;89.70
23147;DHT22;11742;53.532;-1.478;2022-12-07T05:51:49;6.40;89.60
23147;DHT22;11742;53.532;-1.478;2022-12-07T05:54:15;6.50;89.70
23147;DHT22;11742;53.532;-1.478;2022-12-07T05:56:41;6.40;89.60
23147;DHT22;11742;53.532;-1.478;2022-12-07T05:59:10;6.40;89.70
23147;DHT22;11742;53.532;-1.478;2022-12-07T06:01:58;6.40;89.60
23147;DHT22;11742;53.532;-1.478;2022-12-07T06:04:26;6.40;89.70
23147;DHT22;11742;53.532;-1.478;2022-12-07T06:06:52;6.40;89.70
23147;DHT22;11742;53.532;-1.478;2022-12-07T06:09:20;6.40;89.70
23147;DHT22;11742;53.532;-1.478;2022-12-07T06:11:46;6.30;89.60
23147;DHT22;11742;53.532;-1.478;2022-12-07T06:14:30;6.40;89.70
23147;DHT22;11742;53.532;-1.478;2022-12-07T06:16:59;6.30;89.60
23147;DHT22;11742;53.532;-1.478;2022-12-07T06:19:27;6.30;89.60
23147;DHT22;11742;53.532;-1.478;2022-12-07T06:21:56;6.30;89.60
23147;DHT22;11742;53.532;-1.478;2022-12-07T06:24:22;6.30;89.70
23147;DHT22;11742;53.532;-1.478;2022-12-07T06:26:48;6.30;89.60
23147;DHT22;11742;53.532;-1.478;2022-12-07T06:29:15;6.20;89.60
23147;DHT22;11742;53.532;-1.478;2022-12-07T06:31:44;6.30;89.60
23147;DHT22;11742;53.532;-1.478;2022-12-07T06:34:12;6.20;89.60
23147;DHT22;11742;53.532;-1.478;2022-12-07T06:36:39;6.20;89.60
23147;DHT22;11742;53.532;-1.478;2022-12-07T06:39:14;6.20;89.60
23147;DHT22;11742;53.532;-1.478;2022-12-07T06:41:40;6.20;89.60
23147;DHT22;11742;53.532;-1.478;2022-12-07T06:44:06;6.20;89.60
23147;DHT22;11742;53.532;-1.478;2022-12-07T06:46:32;6.20;89.60
23147;DHT22;11742;53.532;-1.478;2022-12-07T06:48:58;6.10;89.50
23147;DHT22;11742;53.532;-1.478;2022-12-07T06:51:25;6.20;89.60
23147;DHT22;11742;53.532;-1.478;2022-12-07T06:53:51;6.20;89.60
23147;DHT22;11742;53.532;-1.478;2022-12-07T06:56:23;6.10;89.50
23147;DHT22;11742;53.532;-1.478;2022-12-07T06:58:49;6.10;89.50
23147;DHT22;11742;53.532;-1.478;2022-12-07T07:01:18;6.10;89.50
23147;DHT22;11742;53.532;-1.478;2022-12-07T07:03:52;6.10;89.50
23147;DHT22;11742;53.532;-1.478;2022-12-07T07:06:30;6.10;89.50
23147;DHT22;11742;53.532;-1.478;2022-12-07T07:09:02;6.10;89.50
23147;DHT22;11742;53.532;-1.478;2022-12-07T07:11:31;6.10;89.50
23147;DHT22;11742;53.532;-1.478;2022-12-07T07:13:56;6.00;89.50
23147;DHT22;11742;53.532;-1.478;2022-12-07T07:16:24;6.00;89.50
23147;DHT22;11742;53.532;-1.478;2022-12-07T07:18:50;6.00;89.50
23147;DHT22;11742;53.532;-1.478;2022-12-07T07:21:17;6.00;89.50
23147;DHT22;11742;53.532;-1.478;2022-12-07T07:23:42;6.00;89.50
23147;DHT22;11742;53.532;-1.478;2022-12-07T07:26:08;6.00;89.50
23147;DHT22;11742;53.532;-1.478;2022-12-07T07:28:34;6.00;89.50
23147;DHT22;11742;53.532;-1.478;2022-12-07T07:31:03;6.00;89.50
23147;DHT22;11742;53.532;-1.478;2022-12-07T07:33:29;5.90;89.40
23147;DHT22;11742;53.532;-1.478;2022-12-07T07:35:54;6.00;89.50
23147;DHT22;11742;53.532;-1.478;2022-12-07T07:38:20;5.90;89.40
23147;DHT22;11742;53.532;-1.478;2022-12-07T07:40:46;5.90;89.40
23147;DHT22;11742;53.532;-1.478;2022-12-07T07:43:21;5.90;89.40
23147;DHT22;11742;53.532;-1.478;2022-12-07T07:45:47;5.90;89.40
23147;DHT22;11742;53.532;-1.478;2022-12-07T07:48:15;5.90;89.40
23147;DHT22;11742;53.532;-1.478;2022-12-07T07:50:44;5.90;89.40
23147;DHT22;11742;53.532;-1.478;2022-12-07T07:53:10;5.90;89.40
23147;DHT22;11742;53.532;-1.478;2022-12-07T07:55:36;5.90;89.40
23147;DHT22;11742;53.532;-1.478;2022-12-07T07:58:01;5.80;89.30
23147;DHT22;11742;53.532;-1.478;2022-12-07T08:00:32;5.90;89.40
23147;DHT22;11742;53.532;-1.478;2022-12-07T08:03:00;5.80;89.30
23147;DHT22;11742;53.532;-1.478;2022-12-07T08:05:29;5.80;89.40
23147;DHT22;11742;53.532;-1.478;2022-12-07T08:08:04;5.80;89.40
23147;DHT22;11742;53.532;-1.478;2022-12-07T08:10:32;5.80;89.40
23147;DHT22;11742;53.532;-1.478;2022-12-07T08:13:00;5.80;89.40
23147;DHT22;11742;53.532;-1.478;2022-12-07T08:15:40;5.80;89.40
23147;DHT22;11742;53.532;-1.478;2022-12-07T08:18:07;5.80;89.40
23147;DHT22;11742;53.532;-1.478;2022-12-07T08:20:34;5.70;89.30
23147;DHT22;11742;53.532;-1.478;2022-12-07T08:23:00;5.70;89.40
23147;DHT22;11742;53.532;-1.478;2022-12-07T08:25:27;5.70;89.40
23147;DHT22;11742;53.532;-1.478;2022-12-07T08:27:55;5.70;89.40
23147;DHT22;11742;53.532;-1.478;2022-12-07T08:30:37;5.70;89.40
23147;DHT22;11742;53.532;-1.478;2022-12-07T08:33:02;5.70;89.50
23147;DHT22;11742;53.532;-1.478;2022-12-07T08:35:28;5.70;89.50
23147;DHT22;11742;53.532;-1.478;2022-12-07T08:37:54;5.70;89.60
23147;DHT22;11742;53.532;-1.478;2022-12-07T08:40:20;5.70;89.60
23147;DHT22;11742;53.532;-1.478;2022-12-07T08:42:50;5.70;89.70
23147;DHT22;11742;53.532;-1.478;2022-12-07T08:45:17;5.70;89.70
23147;DHT22;11742;53.532;-1.478;2022-12-07T08:48:09;5.70;89.80
23147;DHT22;11742;53.532;-1.478;2022-12-07T08:50:37;5.70;89.80
23147;DHT22;11742;53.532;-1.478;2022-12-07T08:53:06;5.70;90.00
23147;DHT22;11742;53.532;-1.478;2022-12-07T08:55:33;5.70;90.00
23147;DHT22;11742;53.532;-1.478;2022-12-07T08:58:03;5.70;90.00
23147;DHT22;11742;53.532;-1.478;2022-12-07T09:00:29;5.70;90.10
23147;DHT22;11742;53.532;-1.478;2022-12-07T09:02:55;5.70;90.10
23147;DHT22;11742;53.532;-1.478;2022-12-07T09:05:24;5.70;90.20
23147;DHT22;11742;53.532;-1.478;2022-12-07T09:07:59;5.80;90.30
23147;DHT22;11742;53.532;-1.478;2022-12-07T09:10:32;5.80;90.30
23147;DHT22;11742;53.532;-1.478;2022-12-07T09:13:26;5.80;90.40
23147;DHT22;11742;53.532;-1.478;2022-12-07T09:15:57;5.80;90.40
23147;DHT22;11742;53.532;-1.478;2022-12-07T09:18:26;5.90;90.40
23147;DHT22;11742;53.532;-1.478;2022-12-07T09:20:53;5.90;90.50
23147;DHT22;11742;53.532;-1.478;2022-12-07T09:23:23;5.90;90.60
23147;DHT22;11742;53.532;-1.478;2022-12-07T09:26:04;5.90;90.60
23147;DHT22;11742;53.532;-1.478;2022-12-07T09:28:31;6.00;90.70
23147;DHT22;11742;53.532;-1.478;2022-12-07T09:34:41;6.10;91.00
23147;DHT22;11742;53.532;-1.478;2022-12-07T09:37:12;6.20;91.20
23147;DHT22;11742;53.532;-1.478;2022-12-07T09:39:51;6.20;91.30
23147;DHT22;11742;53.532;-1.478;2022-12-07T09:42:41;6.30;91.40
23147;DHT22;11742;53.532;-1.478;2022-12-07T09:45:17;6.30;91.60
23147;DHT22;11742;53.532;-1.478;2022-12-07T09:47:44;6.40;91.70
23147;DHT22;11742;53.532;-1.478;2022-12-07T09:50:18;6.40;91.80
23147;DHT22;11742;53.532;-1.478;2022-12-07T09:52:48;6.50;92.00
23147;DHT22;11742;53.532;-1.478;2022-12-07T09:55:18;6.60;92.10
23147;DHT22;11742;53.532;-1.478;2022-12-07T09:57:46;6.60;92.10
23147;DHT22;11742;53.532;-1.478;2022-12-07T10:00:17;6.70;92.20
23147;DHT22;11742;53.532;-1.478;2022-12-07T10:02:53;6.70;92.20
23147;DHT22;11742;53.532;-1.478;2022-12-07T10:05:36;6.80;92.30
23147;DHT22;11742;53.532;-1.478;2022-12-07T10:08:17;6.90;92.40
23147;DHT22;11742;53.532;-1.478;2022-12-07T10:10:51;6.90;92.40
23147;DHT22;11742;53.532;-1.478;2022-12-07T10:13:23;7.00;92.50
23147;DHT22;11742;53.532;-1.478;2022-12-07T10:16:02;7.10;92.50
23147;DHT22;11742;53.532;-1.478;2022-12-07T10:21:26;7.20;92.50
23147;DHT22;11742;53.532;-1.478;2022-12-07T10:26:54;7.40;92.50
23147;DHT22;11742;53.532;-1.478;2022-12-07T10:29:29;7.40;92.40
23147;DHT22;11742;53.532;-1.478;2022-12-07T10:34:45;7.50;92.40
23147;DHT22;11742;53.532;-1.478;2022-12-07T10:37:17;7.60;92.40
23147;DHT22;11742;53.532;-1.478;2022-12-07T10:39:54;7.70;92.40
23147;DHT22;11742;53.532;-1.478;2022-12-07T10:42:44;7.70;92.40
23147;DHT22;11742;53.532;-1.478;2022-12-07T10:45:54;7.80;92.40
23147;DHT22;11742;53.532;-1.478;2022-12-07T11:06:35;8.40;92.50
23147;DHT22;11742;53.532;-1.478;2022-12-07T11:15:00;8.60;92.60
23147;DHT22;11742;53.532;-1.478;2022-12-07T11:23:39;8.90;92.70
23147;DHT22;11742;53.532;-1.478;2022-12-07T11:26:43;9.00;92.60
23147;DHT22;11742;53.532;-1.478;2022-12-07T11:38:03;9.30;92.60
23147;DHT22;11742;53.532;-1.478;2022-12-07T11:40:37;9.30;92.60
23147;DHT22;11742;53.532;-1.478;2022-12-07T11:43:31;9.40;92.50
23147;DHT22;11742;53.532;-1.478;2022-12-07T11:46:22;9.50;92.50
23147;DHT22;11742;53.532;-1.478;2022-12-07T11:51:21;9.60;92.30
23147;DHT22;11742;53.532;-1.478;2022-12-07T11:54:01;9.70;92.20
23147;DHT22;11742;53.532;-1.478;2022-12-07T11:56:30;9.70;92.10
23147;DHT22;11742;53.532;-1.478;2022-12-07T11:59:12;9.80;92.10
23147;DHT22;11742;53.532;-1.478;2022-12-07T12:01:55;9.90;92.10
23147;DHT22;11742;53.532;-1.478;2022-12-07T12:04:38;10.00;91.90
23147;DHT22;11742;53.532;-1.478;2022-12-07T12:07:15;10.00;91.80
23147;DHT22;11742;53.532;-1.478;2022-12-07T12:09:56;10.10;91.70
23147;DHT22;11742;53.532;-1.478;2022-12-07T12:15:41;10.20;91.40
23147;DHT22;11742;53.532;-1.478;2022-12-07T12:23:59;10.40;91.20
23147;DHT22;11742;53.532;-1.478;2022-12-07T12:27:00;10.50;91.00
23147;DHT22;11742;53.532;-1.478;2022-12-07T12:29:44;10.50;91.00
23147;DHT22;11742;53.532;-1.478;2022-12-07T12:51:55;11.00;89.80
23147;DHT22;11742;53.532;-1.478;2022-12-07T12:54:36;11.00;89.30
23147;DHT22;11742;53.532;-1.478;2022-12-07T12:57:28;11.10;89.40
23147;DHT22;11742;53.532;-1.478;2022-12-07T13:03:05;11.20;88.50
23147;DHT22;11742;53.532;-1.478;2022-12-07T13:06:18;11.20;88.30
23147;DHT22;11742;53.532;-1.478;2022-12-07T13:08:58;11.30;88.50
23147;DHT22;11742;53.532;-1.478;2022-12-07T13:11:47;11.30;88.10
23147;DHT22;11742;53.532;-1.478;2022-12-07T13:14:52;11.40;87.70
23147;DHT22;11742;53.532;-1.478;2022-12-07T13:19:58;11.50;87.70
23147;DHT22;11742;53.532;-1.478;2022-12-07T13:25:44;11.50;87.20
23147;DHT22;11742;53.532;-1.478;2022-12-07T13:30:50;11.60;86.40
23147;DHT22;11742;53.532;-1.478;2022-12-07T13:33:29;11.70;85.80
23147;DHT22;11742;53.532;-1.478;2022-12-07T13:35:58;11.70;85.70
23147;DHT22;11742;53.532;-1.478;2022-12-07T13:38:33;11.70;85.60
23147;DHT22;11742;53.532;-1.478;2022-12-07T13:41:13;11.80;85.30
23147;DHT22;11742;53.532;-1.478;2022-12-07T13:43:52;11.80;85.20
23147;DHT22;11742;53.532;-1.478;2022-12-07T13:49:53;11.80;84.60
23147;DHT22;11742;53.532;-1.478;2022-12-07T13:58:04;11.80;84.30
23147;DHT22;11742;53.532;-1.478;2022-12-07T14:00:33;11.80;84.20
23147;DHT22;11742;53.532;-1.478;2022-12-07T14:03:29;11.90;84.10
23147;DHT22;11742;53.532;-1.478;2022-12-07T14:06:33;11.90;84.00
23147;DHT22;11742;53.532;-1.478;2022-12-07T14:09:09;11.90;83.80
23147;DHT22;11742;53.532;-1.478;2022-12-07T14:11:41;11.90;83.60
23147;DHT22;11742;53.532;-1.478;2022-12-07T14:14:29;11.90;83.40
23147;DHT22;11742;53.532;-1.478;2022-12-07T14:17:01;11.90;83.30
23147;DHT22;11742;53.532;-1.478;2022-12-07T14:19:47;11.90;83.10
23147;DHT22;11742;53.532;-1.478;2022-12-07T14:22:38;11.90;83.00
23147;DHT22;11742;53.532;-1.478;2022-12-07T14:30:18;11.90;82.80
23147;DHT22;11742;53.532;-1.478;2022-12-07T14:33:02;11.90;82.80
23147;DHT22;11742;53.532;-1.478;2022-12-07T14:35:32;11.90;82.80
23147;DHT22;11742;53.532;-1.478;2022-12-07T14:37:59;11.90;82.80
23147;DHT22;11742;53.532;-1.478;2022-12-07T14:40:36;11.90;82.60
23147;DHT22;11742;53.532;-1.478;2022-12-07T14:43:08;11.90;82.30
23147;DHT22;11742;53.532;-1.478;2022-12-07T14:45:43;11.90;82.20
23147;DHT22;11742;53.532;-1.478;2022-12-07T14:48:17;11.90;82.50
23147;DHT22;11742;53.532;-1.478;2022-12-07T14:50:52;11.90;82.40
23147;DHT22;11742;53.532;-1.478;2022-12-07T14:53:30;11.90;82.40
23147;DHT22;11742;53.532;-1.478;2022-12-07T14:55:57;11.90;82.20
23147;DHT22;11742;53.532;-1.478;2022-12-07T14:58:33;11.90;82.20
23147;DHT22;11742;53.532;-1.478;2022-12-07T15:00:59;11.90;82.10
23147;DHT22;11742;53.532;-1.478;2022-12-07T15:03:25;11.90;82.00
23147;DHT22;11742;53.532;-1.478;2022-12-07T15:05:52;11.80;82.00
23147;DHT22;11742;53.532;-1.478;2022-12-07T15:08:22;11.80;81.90
23147;DHT22;11742;53.532;-1.478;2022-12-07T15:10:54;11.80;81.90
23147;DHT22;11742;53.532;-1.478;2022-12-07T15:13:19;11.80;81.80
23147;DHT22;11742;53.532;-1.478;2022-12-07T15:16:14;11.80;81.70
23147;DHT22;11742;53.532;-1.478;2022-12-07T15:18:41;11.80;81.70
23147;DHT22;11742;53.532;-1.478;2022-12-07T15:21:13;11.80;81.60
23147;DHT22;11742;53.532;-1.478;2022-12-07T15:23:39;11.70;81.60
23147;DHT22;11742;53.532;-1.478;2022-12-07T15:26:10;11.70;81.50
23147;DHT22;11742;53.532;-1.478;2022-12-07T15:28:45;11.70;81.50
23147;DHT22;11742;53.532;-1.478;2022-12-07T15:31:15;11.70;81.40
23147;DHT22;11742;53.532;-1.478;2022-12-07T15:33:41;11.70;81.20
23147;DHT22;11742;53.532;-1.478;2022-12-07T15:36:19;11.60;81.10
23147;DHT22;11742;53.532;-1.478;2022-12-07T15:38:46;11.60;81.10
23147;DHT22;11742;53.532;-1.478;2022-12-07T15:41:13;11.60;81.10
23147;DHT22;11742;53.532;-1.478;2022-12-07T15:43:45;11.50;81.00
23147;DHT22;11742;53.532;-1.478;2022-12-07T15:46:50;11.50;81.10
23147;DHT22;11742;53.532;-1.478;2022-12-07T15:49:33;11.50;81.20
23147;DHT22;11742;53.532;-1.478;2022-12-07T15:52:02;11.50;81.20
23147;DHT22;11742;53.532;-1.478;2022-12-07T15:54:29;11.40;81.00
23147;DHT22;11742;53.532;-1.478;2022-12-07T15:57:01;11.40;81.10
23147;DHT22;11742;53.532;-1.478;2022-12-07T15:59:30;11.40;81.30
23147;DHT22;11742;53.532;-1.478;2022-12-07T16:01:56;11.30;81.20
23147;DHT22;11742;53.532;-1.478;2022-12-07T16:04:27;11.30;81.20
23147;DHT22;11742;53.532;-1.478;2022-12-07T16:07:00;11.30;81.30
23147;DHT22;11742;53.532;-1.478;2022-12-07T16:09:37;11.20;81.30
23147;DHT22;11742;53.532;-1.478;2022-12-07T16:12:21;11.20;81.30
23147;DHT22;11742;53.532;-1.478;2022-12-07T16:14:47;11.10;81.40
23147;DHT22;11742;53.532;-1.478;2022-12-07T16:17:18;11.10;81.30
23147;DHT22;11742;53.532;-1.478;2022-12-07T16:19:47;11.10;81.40
23147;DHT22;11742;53.532;-1.478;2022-12-07T16:22:16;11.10;81.50
23147;DHT22;11742;53.532;-1.478;2022-12-07T16:24:52;11.00;81.40
23147;DHT22;11742;53.532;-1.478;2022-12-07T16:27:25;11.00;81.40
23147;DHT22;11742;53.532;-1.478;2022-12-07T16:30:00;10.90;81.30
23147;DHT22;11742;53.532;-1.478;2022-12-07T16:32:32;10.90;81.50
23147;DHT22;11742;53.532;-1.478;2022-12-07T16:34:58;10.80;81.50
23147;DHT22;11742;53.532;-1.478;2022-12-07T16:37:29;10.80;81.50
23147;DHT22;11742;53.532;-1.478;2022-12-07T16:39:54;10.80;81.70
23147;DHT22;11742;53.532;-1.478;2022-12-07T16:42:20;10.70;82.50
23147;DHT22;11742;53.532;-1.478;2022-12-07T16:44:52;10.70;81.70
23147;DHT22;11742;53.532;-1.478;2022-12-07T16:47:18;10.60;81.80
23147;DHT22;11742;53.532;-1.478;2022-12-07T16:49:55;10.60;81.80
23147;DHT22;11742;53.532;-1.478;2022-12-07T16:52:47;10.50;82.00
23147;DHT22;11742;53.532;-1.478;2022-12-07T16:55:15;10.50;82.10
23147;DHT22;11742;53.532;-1.478;2022-12-07T16:57:41;10.40;82.20
23147;DHT22;11742;53.532;-1.478;2022-12-07T17:00:10;10.40;82.40
23147;DHT22;11742;53.532;-1.478;2022-12-07T17:02:39;10.30;82.50
23147;DHT22;11742;53.532;-1.478;2022-12-07T17:05:08;10.30;82.60
23147;DHT22;11742;53.532;-1.478;2022-12-07T17:07:33;10.30;82.70
23147;DHT22;11742;53.532;-1.478;2022-12-07T17:10:09;10.20;82.80
23147;DHT22;11742;53.532;-1.478;2022-12-07T17:12:45;10.20;83.00
23147;DHT22;11742;53.532;-1.478;2022-12-07T17:15:17;10.10;83.10
23147;DHT22;11742;53.532;-1.478;2022-12-07T17:17:57;10.10;83.20
23147;DHT22;11742;53.532;-1.478;2022-12-07T17:20:27;10.00;83.20
23147;DHT22;11742;53.532;-1.478;2022-12-07T17:23:15;10.00;83.30
23147;DHT22;11742;53.532;-1.478;2022-12-07T17:25:43;9.90;83.40
23147;DHT22;11742;53.532;-1.478;2022-12-07T17:28:09;9.90;83.40
23147;DHT22;11742;53.532;-1.478;2022-12-07T17:30:41;9.90;83.50
23147;DHT22;11742;53.532;-1.478;2022-12-07T17:33:12;9.80;83.50
23147;DHT22;11742;53.532;-1.478;2022-12-07T17:35:46;9.80;83.60
23147;DHT22;11742;53.532;-1.478;2022-12-07T17:38:14;9.70;83.60
23147;DHT22;11742;53.532;-1.478;2022-12-07T17:40:43;9.70;83.70
23147;DHT22;11742;53.532;-1.478;2022-12-07T17:43:18;9.60;83.70
23147;DHT22;11742;53.532;-1.478;2022-12-07T17:45:51;9.60;83.80
23147;DHT22;11742;53.532;-1.478;2022-12-07T17:48:32;9.60;83.90
23147;DHT22;11742;53.532;-1.478;2022-12-07T17:51:06;9.50;83.90
23147;DHT22;11742;53.532;-1.478;2022-12-07T17:53:58;9.40;83.90
23147;DHT22;11742;53.532;-1.478;2022-12-07T17:56:25;9.40;83.90
23147;DHT22;11742;53.532;-1.478;2022-12-07T17:59:06;9.40;83.90
23147;DHT22;11742;53.532;-1.478;2022-12-07T18:01:53;9.30;84.00
23147;DHT22;11742;53.532;-1.478;2022-12-07T18:04:35;9.30;84.00
23147;DHT22;11742;53.532;-1.478;2022-12-07T18:07:21;9.30;84.10
23147;DHT22;11742;53.532;-1.478;2022-12-07T18:09:47;9.20;84.10
23147;DHT22;11742;53.532;-1.478;2022-12-07T18:12:16;9.20;84.20
23147;DHT22;11742;53.532;-1.478;2022-12-07T18:14:44;9.10;84.10
23147;DHT22;11742;53.532;-1.478;2022-12-07T18:17:10;9.10;84.20